Time;durP1;ratioP1;P1;durP2;ratioP2;P2;SDS_P1;SDS_P2;PMS_P1;PMS_P2;Temp;Humidity;BMP_temperature;BMP_pressure;BME280_temperature;BME280_humidity;BME280_pressure;Samples;Min_cycle;Max_cycle;Signal;HPM_P1;HPM_P2
2023/01/30 00:01:59;;;;;;;26.65;13.38;;;;;;;2.33;100.00;100543.09;5198541;28;20026;-75
2023/01/30 00:04:29;;;;;;;27.45;14.10;;;;;;;2.35;100.00;100541.38;5200575;28;20033;-75
2023/01/30 00:07:00;;;;;;;26.23;13.73;;;;;;;2.46;100.00;100539.59;5197899;28;20029;-76
2023/01/30 00:09:30;;;;;;;25.92;13.63;;;;;;;2.31;100.00;100537.94;5197324;28;20029;-76
2023/01/30 00:12:00;;;;;;;26.33;13.10;;;;;;;2.38;100.00;100547.38;5192658;28;20025;-75
2023/01/30 00:14:31;;;;;;;23.15;12.95;;;;;;;2.44;100.00;100546.47;5196583;28;20104;-75
2023/01/30 00:17:01;;;;;;;24.33;13.30;;;;;;;2.31;100.00;100511.31;5197285;28;20052;-74
2023/01/30 00:19:31;;;;;;;25.73;12.45;;;;;;;2.33;100.00;100489.81;5203816;28;20029;-75
2023/01/30 00:22:01;;;;;;;22.30;12.65;;;;;;;2.27;100.00;100479.53;5191144;28;20025;-75
2023/01/30 00:24:32;;;;;;;23.33;13.13;;;;;;;2.30;100.00;100465.78;5198891;28;20037;-75
2023/01/30 00:27:02;;;;;;;24.40;12.98;;;;;;;2.25;100.00;100452.03;5195068;28;20437;-75
2023/01/30 00:29:32;;;;;;;24.25;12.90;;;;;;;2.19;100.00;100436.59;5208408;28;20030;-75
2023/01/30 00:32:03;;;;;;;25.15;13.00;;;;;;;2.19;100.00;100432.28;5194089;28;20021;-75
2023/01/30 00:34:33;;;;;;;22.77;12.68;;;;;;;2.22;100.00;100423.69;5184859;28;20084;-75
2023/01/30 00:37:03;;;;;;;24.05;12.63;;;;;;;2.22;100.00;100429.72;5217516;23;20577;-73
2023/01/30 00:39:34;;;;;;;25.05;12.82;;;;;;;2.26;100.00;100431.41;5184184;28;20372;-72
2023/01/30 00:47:42;;;;;;;22.45;13.15;;;;;;;2.34;100.00;100444.28;5192261;28;20040;-72
2023/01/30 00:50:12;;;;;;;24.90;13.10;;;;;;;2.48;100.00;100445.06;5186221;28;20029;-73
2023/01/30 00:52:43;;;;;;;27.48;13.10;;;;;;;2.57;100.00;100450.16;5193898;28;20076;-72
2023/01/30 00:55:14;;;;;;;25.02;12.15;;;;;;;2.66;100.00;100443.22;5189733;28;20406;-72
2023/01/30 00:57:44;;;;;;;21.50;11.82;;;;;;;2.69;100.00;100450.09;5190600;28;20029;-72
2023/01/30 01:00:16;;;;;;;22.67;11.57;;;;;;;2.76;100.00;100442.31;5189843;28;20029;-73
2023/01/30 01:02:47;;;;;;;21.65;11.65;;;;;;;2.82;100.00;100431.09;5188659;28;20078;-72
2023/01/30 01:05:17;;;;;;;19.27;10.90;;;;;;;2.81;100.00;100413.88;5179840;28;20045;-73
2023/01/30 01:07:47;;;;;;;23.05;11.10;;;;;;;2.87;100.00;100388.03;5183911;28;20026;-72
2023/01/30 01:10:18;;;;;;;22.92;12.65;;;;;;;2.80;100.00;100378.63;5182324;28;20021;-72
2023/01/30 01:12:51;;;;;;;20.77;10.73;;;;;;;2.75;100.00;100377.81;5191984;28;20029;-72
2023/01/30 01:15:23;;;;;;;20.15;11.55;;;;;;;2.76;100.00;100369.19;5190068;28;20579;-73
2023/01/30 01:17:54;;;;;;;18.92;11.05;;;;;;;2.68;100.00;100373.56;5192609;28;20029;-73
2023/01/30 01:20:24;;;;;;;21.45;12.23;;;;;;;2.68;100.00;100377.00;5187091;28;20049;-73
2023/01/30 01:22:55;;;;;;;22.92;12.40;;;;;;;2.69;100.00;100383.03;5198015;28;20044;-73
2023/01/30 01:25:26;;;;;;;23.25;12.85;;;;;;;2.67;100.00;100359.81;5193971;28;20026;-73
2023/01/30 01:27:56;;;;;;;23.42;12.27;;;;;;;2.68;100.00;100373.56;5193253;28;20025;-72
2023/01/30 01:30:26;;;;;;;24.42;12.52;;;;;;;2.84;100.00;100362.28;5186787;28;20365;-73
2023/01/30 01:32:57;;;;;;;22.17;11.90;;;;;;;2.86;100.00;100350.22;5199954;28;20021;-72
2023/01/30 01:35:27;;;;;;;19.85;11.20;;;;;;;2.88;100.00;100338.16;5192797;28;20025;-73
2023/01/30 01:37:57;;;;;;;23.25;11.75;;;;;;;2.90;100.00;100339.00;5189899;28;20037;-73
2023/01/30 01:43:19;;;;;;;21.90;11.90;;;;;;;2.92;100.00;100326.91;5191230;28;20092;-73
2023/01/30 01:45:55;;;;;;;24.73;12.45;;;;;;;2.99;100.00;100331.19;5186105;28;20033;-73
2023/01/30 01:48:48;;;;;;;24.75;13.23;;;;;;;2.86;100.00;100329.56;5196325;28;20049;-72
2023/01/30 01:51:37;;;;;;;25.55;12.55;;;;;;;2.95;100.00;100324.31;5194773;28;20497;-72
2023/01/30 01:54:12;;;;;;;34.33;14.80;;;;;;;2.93;100.00;100310.56;5189486;28;20025;-72
2023/01/30 01:56:46;;;;;;;28.38;13.43;;;;;;;2.90;100.00;100295.13;5189895;28;20034;-73
2023/01/30 01:59:31;;;;;;;27.52;13.93;;;;;;;2.91;100.00;100282.22;5194768;28;20407;-72
2023/01/30 02:02:09;;;;;;;30.98;14.40;;;;;;;2.91;100.00;100281.34;5188841;28;20507;-72
2023/01/30 02:05:03;;;;;;;27.77;14.18;;;;;;;2.88;100.00;100256.41;5190531;28;20556;-72
2023/01/30 02:07:48;;;;;;;29.58;14.50;;;;;;;2.84;100.00;100264.22;5191373;28;20030;-72
2023/01/30 02:10:23;;;;;;;27.33;14.02;;;;;;;2.88;100.00;100251.25;5181583;28;20506;-72
2023/01/30 02:12:54;;;;;;;27.27;13.65;;;;;;;2.94;100.00;100240.03;5182963;28;20033;-74
2023/01/30 02:15:24;;;;;;;28.35;14.23;;;;;;;2.81;100.00;100233.28;5193231;28;20396;-72
2023/01/30 02:17:54;;;;;;;28.70;14.77;;;;;;;2.81;100.00;100223.81;5191098;28;20009;-72
2023/01/30 02:20:50;;;;;;;25.98;14.15;;;;;;;2.75;100.00;100231.63;5183979;28;20417;-72
2023/01/30 02:23:41;;;;;;;29.13;14.90;;;;;;;2.82;100.00;100247.91;5192651;28;20277;-72
2023/01/30 02:26:35;;;;;;;27.42;14.38;;;;;;;2.83;100.00;100244.47;5191501;28;20279;-71
2023/01/30 02:29:30;;;;;;;33.53;14.90;;;;;;;2.67;100.00;100241.16;5185775;28;20033;-71
2023/01/30 02:32:30;;;;;;;30.80;14.57;;;;;;;2.71;100.00;100231.66;5189862;28;20406;-72
2023/01/30 02:35:45;;;;;;;30.63;14.48;;;;;;;2.61;100.00;100222.31;5186688;28;20375;-72
2023/01/30 02:38:23;;;;;;;31.55;14.60;;;;;;;2.66;100.00;100210.25;5169857;28;20083;-72
2023/01/30 02:41:21;;;;;;;27.52;14.23;;;;;;;2.71;100.00;100211.88;5190230;28;20080;-71
2023/01/30 02:43:58;;;;;;;30.65;14.88;;;;;;;2.70;100.00;100217.91;5183954;28;20029;-72
2023/01/30 02:46:31;;;;;;;32.95;15.05;;;;;;;2.74;100.00;100198.09;5181974;28;20025;-72
2023/01/30 02:49:10;;;;;;;31.40;14.73;;;;;;;2.80;100.00;100205.75;5193900;28;20100;-71
2023/01/30 02:51:42;;;;;;;31.45;15.82;;;;;;;2.85;100.00;100196.28;5191780;28;20411;-72
2023/01/30 02:54:14;;;;;;;31.38;15.07;;;;;;;2.79;100.00;100201.47;5189374;28;20414;-71
2023/01/30 02:56:56;;;;;;;32.25;14.85;;;;;;;2.91;100.00;100183.28;5187873;28;20500;-72
2023/01/30 02:59:35;;;;;;;32.65;14.48;;;;;;;2.87;100.00;100192.78;5190921;28;20037;-72
2023/01/30 03:02:17;;;;;;;28.38;15.07;;;;;;;2.89;100.00;100169.56;5183479;28;20022;-72
2023/01/30 03:04:57;;;;;;;29.33;14.60;;;;;;;2.94;100.00;100167.78;5190296;28;20510;-71
2023/01/30 03:07:47;;;;;;;29.33;14.20;;;;;;;3.02;100.00;100158.22;5183719;28;20037;-72
2023/01/30 03:10:36;;;;;;;26.13;13.40;;;;;;;2.95;100.00;100170.34;5190147;28;20029;-72
2023/01/30 03:13:15;;;;;;;25.95;13.25;;;;;;;2.96;100.00;100153.13;5188573;28;20407;-72
2023/01/30 03:15:55;;;;;;;27.92;13.90;;;;;;;2.97;100.00;100147.09;5194774;28;20459;-72
2023/01/30 03:18:25;;;;;;;24.60;12.82;;;;;;;3.03;100.00;100153.03;5180954;28;20021;-72
2023/01/30 03:21:04;;;;;;;23.63;12.35;;;;;;;3.21;100.00;100154.53;5186795;28;20044;-72
2023/01/30 03:23:34;;;;;;;24.13;12.25;;;;;;;3.19;100.00;100138.22;5196906;28;20032;-72
2023/01/30 03:26:09;;;;;;;21.88;11.45;;;;;;;3.26;100.00;100145.88;5185396;28;20372;-73
2023/01/30 03:28:40;;;;;;;21.02;11.68;;;;;;;3.28;100.00;100143.25;5183113;28;20380;-72
2023/01/30 03:31:11;;;;;;;19.42;10.93;;;;;;;3.39;100.00;100146.56;5186201;28;20036;-72
2023/01/30 03:33:41;;;;;;;18.88;11.23;;;;;;;3.43;100.00;100128.41;5192181;28;20030;-72
2023/01/30 03:36:12;;;;;;;24.35;11.68;;;;;;;3.48;100.00;100118.88;5186837;28;20026;-72
2023/01/30 03:38:43;;;;;;;21.30;11.23;;;;;;;3.49;100.00;100117.13;5188479;28;20045;-72
2023/01/30 03:41:13;;;;;;;21.42;11.95;;;;;;;3.47;100.00;100113.72;5194142;28;20454;-72
2023/01/30 03:43:43;;;;;;;22.48;11.57;;;;;;;3.50;100.00;100111.13;5189015;28;20179;-72
2023/01/30 03:46:14;;;;;;;21.80;11.80;;;;;;;3.58;100.00;100116.13;5192051;28;20394;-72
2023/01/30 03:48:44;;;;;;;23.15;12.15;;;;;;;3.54;100.00;100090.34;5189385;28;20500;-72
2023/01/30 03:51:14;;;;;;;21.63;12.20;;;;;;;3.56;100.00;100093.75;5187026;28;20080;-72
2023/01/30 03:53:45;;;;;;;23.13;12.43;;;;;;;3.56;100.00;100085.19;5194265;28;20035;-72
2023/01/30 03:56:15;;;;;;;22.55;12.38;;;;;;;3.60;100.00;100075.63;5185530;28;20034;-72
2023/01/30 03:58:45;;;;;;;23.00;12.23;;;;;;;3.58;100.00;100075.66;5183892;28;20034;-72
2023/01/30 04:01:16;;;;;;;23.42;12.65;;;;;;;3.56;100.00;100062.75;5188621;28;20092;-72
2023/01/30 04:03:46;;;;;;;24.92;12.55;;;;;;;3.50;100.00;100072.38;5194362;28;20033;-72
2023/01/30 04:06:16;;;;;;;21.75;12.18;;;;;;;3.53;100.00;100067.16;5190376;28;20036;-72
2023/01/30 04:08:46;;;;;;;24.25;12.98;;;;;;;3.59;100.00;100073.06;5182240;28;20320;-72
2023/01/30 04:11:17;;;;;;;24.60;11.40;;;;;;;3.70;100.00;100066.84;5196010;28;20037;-72
2023/01/30 04:13:47;;;;;;;22.45;12.00;;;;;;;3.66;100.00;100062.63;5191254;28;20447;-72
2023/01/30 04:16:23;;;;;;;24.05;12.30;;;;;;;3.59;100.00;100061.00;5192959;28;20123;-72
2023/01/30 04:18:54;;;;;;;24.85;12.57;;;;;;;3.66;100.00;100054.88;5192226;28;20080;-72
2023/01/30 04:21:24;;;;;;;24.20;12.70;;;;;;;3.71;100.00;100071.16;5188042;28;20407;-72
2023/01/30 04:23:54;;;;;;;23.77;12.73;;;;;;;3.74;100.00;100060.75;5193249;28;20116;-72
2023/01/30 04:26:25;;;;;;;22.92;12.60;;;;;;;3.78;100.00;100054.66;5190263;28;20033;-72
2023/01/30 04:28:55;;;;;;;24.50;12.48;;;;;;;3.84;100.00;100046.81;5185683;28;20034;-72
2023/01/30 04:31:25;;;;;;;20.80;12.20;;;;;;;3.92;100.00;100047.53;5190755;28;20032;-72
2023/01/30 04:33:56;;;;;;;23.77;12.65;;;;;;;3.96;100.00;100054.34;5191390;28;20029;-72
2023/01/30 04:36:28;;;;;;;28.38;12.48;;;;;;;3.94;100.00;100034.59;5194140;28;20084;-72
2023/01/30 04:38:58;;;;;;;22.00;11.68;;;;;;;3.94;100.00;100040.59;5189593;28;20064;-73
2023/01/30 04:41:28;;;;;;;22.20;11.70;;;;;;;4.00;100.00;100044.81;5194021;28;20306;-72
2023/01/30 04:43:58;;;;;;;21.85;11.68;;;;;;;3.90;100.00;100038.94;5197481;28;20402;-73
2023/01/30 04:46:29;;;;;;;24.65;12.75;;;;;;;3.84;100.00;100036.47;5189125;28;20117;-72
2023/01/30 04:48:59;;;;;;;28.70;13.15;;;;;;;3.80;100.00;100037.38;5189531;28;20037;-71
2023/01/30 04:51:29;;;;;;;23.85;13.15;;;;;;;3.78;100.00;100041.72;5200514;28;20497;-72
2023/01/30 04:54:00;;;;;;;23.55;12.18;;;;;;;3.73;100.00;100040.09;5191504;28;20295;-72
2023/01/30 04:56:30;;;;;;;25.70;12.88;;;;;;;3.65;100.00;100032.47;5193155;28;20115;-72
2023/01/30 04:59:00;;;;;;;24.85;12.80;;;;;;;3.56;100.00;100030.94;5188535;28;20125;-71
2023/01/30 05:01:34;;;;;;;26.52;13.27;;;;;;;3.50;100.00;100031.03;5195151;28;20041;-72
2023/01/30 05:04:06;;;;;;;25.05;13.07;;;;;;;3.52;100.00;100034.44;5189073;28;20017;-71
2023/01/30 05:06:36;;;;;;;26.77;12.73;;;;;;;3.50;100.00;100016.38;5189986;28;20116;-72
2023/01/30 05:09:06;;;;;;;25.48;12.80;;;;;;;3.49;100.00;100016.41;5190865;28;20121;-71
2023/01/30 05:11:37;;;;;;;25.98;13.60;;;;;;;3.45;100.00;100010.47;5190873;28;20026;-72
2023/01/30 05:14:07;;;;;;;27.08;13.95;;;;;;;3.47;100.00;100000.06;5196757;28;20043;-72
2023/01/30 05:16:38;;;;;;;25.08;12.60;;;;;;;3.51;100.00;99996.59;5183252;28;20026;-72
2023/01/30 05:19:11;;;;;;;23.63;12.73;;;;;;;3.59;100.00;99982.66;5190612;28;20116;-72
2023/01/30 05:21:41;;;;;;;26.15;13.48;;;;;;;3.52;100.00;99978.47;5192515;28;20032;-72
2023/01/30 05:24:11;;;;;;;31.85;14.30;;;;;;;3.50;100.00;99982.81;5182597;28;20025;-72
2023/01/30 05:26:42;;;;;;;25.75;13.32;;;;;;;3.62;100.00;99978.28;5187991;28;20140;-72
2023/01/30 05:29:12;;;;;;;28.45;13.43;;;;;;;3.60;100.00;99980.03;5192173;28;20319;-72
2023/01/30 05:31:42;;;;;;;26.83;12.35;;;;;;;3.65;100.00;99978.22;5190667;28;20021;-72
2023/01/30 05:34:13;;;;;;;27.13;12.55;;;;;;;3.63;100.00;99967.06;5194403;28;20562;-72
2023/01/30 05:36:43;;;;;;;26.13;12.77;;;;;;;3.68;100.00;99960.09;5199814;28;20037;-71
2023/01/30 05:39:13;;;;;;;27.40;12.25;;;;;;;3.67;100.00;99948.06;5186593;28;20083;-72
2023/01/30 05:41:43;;;;;;;25.48;12.57;;;;;;;3.66;100.00;99943.78;5195694;28;20120;-72
2023/01/30 05:44:14;;;;;;;27.38;12.68;;;;;;;3.76;100.00;99947.88;5193400;28;20459;-72
2023/01/30 05:46:44;;;;;;;25.15;12.45;;;;;;;3.79;100.00;99957.31;5187052;28;20088;-72
2023/01/30 05:49:15;;;;;;;26.25;12.35;;;;;;;3.75;100.00;99951.34;5188155;28;20276;-72
2023/01/30 05:51:45;;;;;;;23.63;11.98;;;;;;;3.71;100.00;99954.00;5193824;28;20034;-72
2023/01/30 05:54:15;;;;;;;25.10;12.40;;;;;;;3.72;100.00;99961.75;5190761;28;20105;-72
2023/01/30 05:56:49;;;;;;;25.65;12.40;;;;;;;3.80;100.00;99951.28;5192796;28;20049;-72
2023/01/30 05:59:20;;;;;;;24.25;12.63;;;;;;;3.81;100.00;99955.56;5192336;28;20116;-72
2023/01/30 06:01:50;;;;;;;27.75;12.93;;;;;;;3.81;100.00;99955.56;5187980;28;20056;-72
2023/01/30 06:04:20;;;;;;;22.58;11.23;;;;;;;3.87;100.00;99945.97;5188867;28;20030;-72
2023/01/30 06:06:51;;;;;;;22.10;11.63;;;;;;;3.82;100.00;99950.34;5187608;28;20037;-72
2023/01/30 06:09:21;;;;;;;25.42;11.98;;;;;;;3.87;100.00;99956.31;5191951;28;20052;-73
2023/01/30 06:11:51;;;;;;;21.58;10.43;;;;;;;3.99;100.00;99935.38;5195934;28;20037;-72
2023/01/30 06:14:22;;;;;;;20.67;10.30;;;;;;;4.06;100.00;99949.03;5185202;28;20026;-72
2023/01/30 06:16:52;;;;;;;17.67;9.20;;;;;;;4.26;100.00;99950.34;5187701;28;20026;-71
2023/01/30 06:19:22;;;;;;;12.80;7.03;;;;;;;4.41;100.00;99939.69;5191593;28;20029;-73
2023/01/30 06:21:52;;;;;;;12.50;7.32;;;;;;;4.51;100.00;99941.22;5191854;28;20656;-73
2023/01/30 06:24:24;;;;;;;15.27;8.25;;;;;;;4.68;100.00;99933.06;5190783;28;20538;-72
2023/01/30 06:26:54;;;;;;;12.65;7.57;;;;;;;4.64;100.00;99928.84;5188351;28;20053;-73
2023/01/30 06:29:24;;;;;;;12.85;7.82;;;;;;;4.74;100.00;99931.19;5186450;28;20048;-73
2023/01/30 06:31:54;;;;;;;11.55;7.40;;;;;;;4.76;100.00;99932.00;5195493;28;20038;-72
2023/01/30 06:34:25;;;;;;;11.27;5.82;;;;;;;4.84;100.00;99924.91;5186599;28;20573;-73
2023/01/30 06:36:55;;;;;;;11.52;6.63;;;;;;;4.86;100.00;99928.34;5188666;28;20033;-73
2023/01/30 06:39:25;;;;;;;10.60;6.43;;;;;;;4.89;100.00;99928.25;5193556;28;20033;-72
2023/01/30 06:41:56;;;;;;;10.10;6.07;;;;;;;4.91;100.00;99928.22;5188547;28;20025;-74
2023/01/30 06:44:26;;;;;;;10.00;6.20;;;;;;;4.90;100.00;99940.31;5189569;28;20045;-73
2023/01/30 06:46:56;;;;;;;10.32;5.90;;;;;;;4.95;100.00;99928.13;5184473;28;20479;-73
2023/01/30 06:49:26;;;;;;;9.80;5.30;;;;;;;4.94;100.00;99930.75;5185150;28;20364;-73
2023/01/30 06:51:57;;;;;;;11.73;6.18;;;;;;;4.95;100.00;99943.66;5183353;28;20025;-73
2023/01/30 06:54:27;;;;;;;10.18;5.60;;;;;;;4.93;100.00;99937.66;5191887;28;20036;-73
2023/01/30 06:56:57;;;;;;;9.13;5.03;;;;;;;4.93;100.00;99945.44;5194211;28;20021;-73
2023/01/30 06:59:28;;;;;;;9.55;4.97;;;;;;;4.91;100.00;99956.69;5182505;28;20030;-73
2023/01/30 07:01:58;;;;;;;8.27;4.55;;;;;;;4.89;100.00;99941.22;5191216;28;20053;-72
2023/01/30 07:04:28;;;;;;;7.30;4.30;;;;;;;4.91;100.00;99961.88;5187383;28;20025;-73
2023/01/30 07:06:59;;;;;;;8.15;4.90;;;;;;;4.89;100.00;99958.47;5192131;28;20021;-72
2023/01/30 07:09:29;;;;;;;13.15;7.80;;;;;;;4.86;100.00;99972.34;5183053;28;20041;-73
2023/01/30 07:11:59;;;;;;;8.77;5.35;;;;;;;4.87;100.00;99971.47;5190946;28;20029;-73
2023/01/30 07:14:29;;;;;;;9.65;5.35;;;;;;;4.90;100.00;99970.50;5192098;28;20120;-74
2023/01/30 07:17:00;;;;;;;11.55;5.80;;;;;;;4.90;100.00;99971.38;5182877;28;20104;-73
2023/01/30 07:19:30;;;;;;;18.48;8.15;;;;;;;4.94;100.00;99977.34;5189255;28;20060;-73
2023/01/30 07:22:00;;;;;;;11.75;6.60;;;;;;;4.95;100.00;99966.94;5185231;28;20543;-73
2023/01/30 07:24:31;;;;;;;20.33;10.07;;;;;;;5.01;100.00;99973.72;5188553;28;20034;-73
2023/01/30 07:27:01;;;;;;;14.25;7.15;;;;;;;4.95;100.00;99979.88;5188119;28;20061;-73
2023/01/30 07:29:31;;;;;;;12.38;6.78;;;;;;;4.88;100.00;99988.69;5188345;28;20101;-73
2023/01/30 07:32:02;;;;;;;22.48;9.90;;;;;;;4.91;100.00;99988.63;5192187;28;20084;-72
2023/01/30 07:34:33;;;;;;;19.55;9.43;;;;;;;4.93;100.00;99986.84;5187314;28;20345;-73
2023/01/30 07:37:03;;;;;;;9.27;6.32;;;;;;;4.96;100.00;99981.59;5184682;28;20129;-73
2023/01/30 07:39:34;;;;;;;12.23;6.38;;;;;;;4.95;100.00;99972.13;5185903;28;20115;-73
2023/01/30 07:42:05;;;;;;;9.48;4.40;;;;;;;5.06;100.00;99977.91;5193217;28;20033;-73
2023/01/30 07:44:35;;;;;;;15.27;4.75;;;;;;;5.03;100.00;99983.19;5190055;28;20040;-72
2023/01/30 07:47:05;;;;;;;12.82;4.72;;;;;;;5.05;100.00;99988.28;5188857;28;20072;-73
2023/01/30 07:49:35;;;;;;;11.18;4.43;;;;;;;5.12;100.00;99985.53;5194355;28;20040;-74
2023/01/30 07:52:06;;;;;;;12.63;4.25;;;;;;;5.20;100.00;99986.22;5201632;28;20029;-74
2023/01/30 07:54:36;;;;;;;11.35;3.85;;;;;;;5.36;100.00;99984.94;5194302;28;20108;-72
2023/01/30 07:57:06;;;;;;;12.75;3.30;;;;;;;5.68;100.00;99996.22;5194287;28;20033;-72
2023/01/30 07:59:37;;;;;;;8.10;3.00;;;;;;;5.79;100.00;100003.78;5195411;28;20033;-73
2023/01/30 08:02:10;;;;;;;10.95;2.72;;;;;;;5.62;100.00;99996.41;5193899;28;20482;-73
2023/01/30 08:04:40;;;;;;;10.43;2.50;;;;;;;5.60;100.00;99992.13;5194296;28;20033;-74
2023/01/30 08:07:11;;;;;;;14.55;2.85;;;;;;;5.71;100.00;99996.16;5189793;28;20022;-73
2023/01/30 08:09:41;;;;;;;13.65;3.53;;;;;;;6.14;100.00;99998.50;5187885;28;20033;-74
2023/01/30 08:12:11;;;;;;;12.57;3.08;;;;;;;7.24;100.00;99990.91;5187670;28;20519;-72
2023/01/30 08:14:41;;;;;;;11.95;2.35;;;;;;;7.90;97.63;99985.19;5192304;28;20025;-73
2023/01/30 08:17:12;;;;;;;11.88;2.75;;;;;;;8.46;95.70;99991.03;5202096;28;20069;-73
2023/01/30 08:19:42;;;;;;;13.82;2.92;;;;;;;8.03;95.62;100002.06;5195638;28;20041;-73
2023/01/30 08:22:13;;;;;;;14.52;2.50;;;;;;;7.22;98.22;100012.56;5195753;28;20041;-73
2023/01/30 08:24:43;;;;;;;15.43;2.58;;;;;;;6.96;100.00;100014.28;5191395;28;20029;-73
2023/01/30 08:27:14;;;;;;;17.35;2.42;;;;;;;6.74;100.00;100008.00;5198986;28;20014;-73
2023/01/30 08:29:44;;;;;;;8.75;2.17;;;;;;;6.56;100.00;99999.94;5189268;28;20025;-72
2023/01/30 08:32:14;;;;;;;13.43;2.78;;;;;;;6.38;100.00;100008.19;5195236;28;20117;-74
2023/01/30 08:34:44;;;;;;;11.23;2.35;;;;;;;6.55;100.00;100003.38;5196948;28;20040;-73
2023/01/30 08:37:15;;;;;;;18.75;2.70;;;;;;;6.55;100.00;100013.78;5187043;28;20029;-72
2023/01/30 08:39:45;;;;;;;10.77;2.20;;;;;;;6.81;100.00;100003.50;5191689;28;20504;-72
2023/01/30 08:42:15;;;;;;;12.20;2.28;;;;;;;6.63;100.00;100011.81;5194823;28;20025;-74
2023/01/30 08:44:46;;;;;;;13.13;2.13;;;;;;;6.39;100.00;100015.97;5192309;28;20041;-72
2023/01/30 08:47:16;;;;;;;15.55;2.38;;;;;;;6.29;100.00;100021.44;5189448;28;20104;-73
2023/01/30 08:49:46;;;;;;;13.13;2.35;;;;;;;6.23;100.00;100021.63;5193560;28;20036;-72
2023/01/30 08:52:17;;;;;;;19.20;2.42;;;;;;;6.14;100.00;100024.44;5195554;28;20189;-73
2023/01/30 08:54:48;;;;;;;15.05;2.60;;;;;;;6.11;100.00;100019.34;5195070;28;20494;-73
2023/01/30 08:57:19;;;;;;;15.40;2.50;;;;;;;6.10;100.00;100022.84;5194469;28;20065;-74
2023/01/30 08:59:50;;;;;;;11.88;2.13;;;;;;;5.96;100.00;100027.53;5190486;28;20021;-73
2023/01/30 09:02:20;;;;;;;13.65;2.10;;;;;;;6.00;100.00;100029.13;5192837;28;20511;-74
2023/01/30 09:04:50;;;;;;;15.43;2.22;;;;;;;6.08;100.00;100022.03;5194388;28;20088;-72
2023/01/30 09:07:21;;;;;;;14.18;2.47;;;;;;;6.10;100.00;100026.25;5188770;28;20021;-73
2023/01/30 09:09:51;;;;;;;13.43;2.35;;;;;;;6.17;100.00;100032.13;5185383;28;20527;-73
2023/01/30 09:12:21;;;;;;;13.27;2.10;;;;;;;6.16;100.00;100025.25;5190659;28;20084;-73
2023/01/30 09:14:52;;;;;;;15.52;2.60;;;;;;;6.20;100.00;100024.28;5190162;28;20583;-73
2023/01/30 09:17:23;;;;;;;14.05;2.40;;;;;;;6.25;100.00;100014.66;5190691;28;20021;-73
2023/01/30 09:19:54;;;;;;;20.27;2.42;;;;;;;6.38;99.78;100028.97;5191408;28;20032;-73
2023/01/30 09:22:24;;;;;;;17.52;2.88;;;;;;;6.57;98.48;100025.00;5192709;28;20029;-73
2023/01/30 09:24:54;;;;;;;16.75;2.47;;;;;;;6.67;99.16;100023.81;5189440;28;20056;-74
2023/01/30 09:27:25;;;;;;;18.20;2.45;;;;;;;6.97;98.18;100022.94;5192685;28;20029;-73
2023/01/30 09:29:55;;;;;;;21.10;2.72;;;;;;;6.89;97.95;100025.75;5184986;28;20435;-74
2023/01/30 09:32:25;;;;;;;21.02;2.80;;;;;;;6.70;96.49;100023.72;5185471;28;20053;-73
2023/01/30 09:34:56;;;;;;;21.67;2.97;;;;;;;6.58;98.10;100019.72;5193556;28;20025;-73
2023/01/30 09:37:26;;;;;;;24.05;5.15;;;;;;;6.61;98.15;100024.00;5194842;28;21452;-73
2023/01/30 09:39:56;;;;;;;16.25;4.10;;;;;;;6.64;97.82;100036.88;5194397;28;20032;-73
2023/01/30 09:42:49;;;;;;;18.48;4.18;;;;;;;6.58;99.09;100030.13;5186419;28;20466;-73
2023/01/30 09:45:57;;;;;;;25.60;7.70;;;;;;;6.48;100.00;100035.63;5189832;28;20029;-73
2023/01/30 09:49:11;;;;;;;22.90;5.93;;;;;;;6.40;100.00;100035.81;5185377;28;20030;-74
2023/01/30 09:52:05;;;;;;;18.25;2.17;;;;;;;6.44;100.00;100023.63;5198182;28;20030;-73
2023/01/30 09:54:39;;;;;;;15.68;2.45;;;;;;;6.51;100.00;100019.94;5191640;28;20029;-74
2023/01/30 09:57:16;;;;;;;15.48;2.15;;;;;;;6.58;98.93;100009.34;5193097;28;20511;-72
2023/01/30 09:59:56;;;;;;;12.02;2.13;;;;;;;6.46;99.18;100012.28;5192328;28;20180;-73
2023/01/30 10:02:40;;;;;;;17.45;2.88;;;;;;;6.66;98.34;100006.53;5191969;28;20530;-73
2023/01/30 10:05:11;;;;;;;22.65;2.90;;;;;;;6.81;97.10;100012.16;5186455;28;20025;-73
2023/01/30 10:08:05;;;;;;;13.98;2.30;;;;;;;7.01;94.52;100008.94;5191926;28;20083;-73
2023/01/30 10:10:46;;;;;;;19.48;2.80;;;;;;;7.05;93.64;99998.41;5192397;28;20033;-73
2023/01/30 10:13:35;;;;;;;20.13;2.75;;;;;;;7.32;93.99;100006.22;5188750;28;20041;-73
2023/01/30 10:16:19;;;;;;;19.02;3.25;;;;;;;7.24;94.35;100015.13;5193526;28;20031;-74
2023/01/30 10:19:15;;;;;;;20.50;2.65;;;;;;;7.32;94.73;100006.22;5188383;28;20099;-73
2023/01/30 10:21:54;;;;;;;;;;;;;;;7.13;94.73;100003.38;5182936;28;20038;-73
2023/01/30 10:24:39;;;;;;;16.25;2.58;;;;;;;7.05;95.21;99985.44;5194487;28;19913;-73
2023/01/30 10:27:14;;;;;;;17.53;3.00;;;;;;;7.02;96.07;99989.84;5193263;28;20053;-73
2023/01/30 10:29:52;;;;;;;15.35;2.55;;;;;;;6.95;95.63;99993.56;5185380;28;20136;-73
2023/01/30 10:32:36;;;;;;;19.50;2.75;;;;;;;6.99;95.39;99998.63;5184739;28;20057;-74
2023/01/30 10:35:19;;;;;;;18.48;2.20;;;;;;;6.98;95.46;99993.44;5193431;28;20104;-74
2023/01/30 10:37:49;;;;;;;17.90;2.60;;;;;;;7.16;94.06;99983.38;5185763;28;20563;-73
2023/01/30 10:40:29;;;;;;;17.98;2.30;;;;;;;7.13;93.89;99998.19;5189358;28;20104;-73
2023/01/30 10:43:08;;;;;;;20.25;2.90;;;;;;;7.10;93.55;99993.09;5191012;28;20036;-74
2023/01/30 10:46:12;;;;;;;20.88;2.55;;;;;;;6.99;94.22;100002.94;5189610;28;20029;-73
2023/01/30 10:49:03;;;;;;;23.02;2.67;;;;;;;6.98;93.08;99991.72;5186022;28;20037;-73
2023/01/30 10:51:46;;;;;;;20.50;2.83;;;;;;;6.85;93.68;99995.56;5190619;28;20474;-73
2023/01/30 10:54:34;;;;;;;20.25;2.80;;;;;;;6.94;93.56;99984.06;5187829;28;20029;-73
2023/01/30 10:57:25;;;;;;;18.95;3.05;;;;;;;6.92;93.23;99976.31;5189343;28;20026;-72
2023/01/30 11:00:13;;;;;;;18.83;2.75;;;;;;;6.98;93.01;99973.53;5187262;28;20467;-73
2023/01/30 11:03:23;;;;;;;17.70;2.45;;;;;;;7.04;93.32;99977.66;5186891;28;20395;-73
2023/01/30 11:05:59;;;;;;;11.90;2.22;;;;;;;7.11;92.76;99963.63;5196566;28;20029;-73
2023/01/30 11:08:32;;;;;;;16.92;2.17;;;;;;;7.14;92.88;99966.94;5184001;28;20496;-73
2023/01/30 11:11:24;;;;;;;17.98;3.60;;;;;;;7.15;93.59;99970.41;5187588;28;20475;-74
2023/01/30 11:14:06;;;;;;;24.65;4.15;;;;;;;7.19;93.20;99964.22;5189846;28;20521;-73
2023/01/30 11:16:46;;;;;;;18.25;3.63;;;;;;;7.16;93.27;99970.38;5186436;28;20033;-73
2023/01/30 11:19:21;;;;;;;18.17;2.58;;;;;;;7.22;92.66;99954.56;5193030;28;20136;-71
2023/01/30 11:21:58;;;;;;;15.50;2.60;;;;;;;7.29;91.54;99959.53;5192606;28;20025;-72
2023/01/30 11:24:39;;;;;;;17.13;2.63;;;;;;;7.42;90.72;99954.78;5196699;28;20022;-73
2023/01/30 11:27:15;;;;;;;18.08;2.55;;;;;;;7.52;90.91;99946.63;5198284;28;20072;-72
2023/01/30 11:29:46;;;;;;;18.65;3.10;;;;;;;7.53;90.71;99947.47;5193497;28;20113;-72
2023/01/30 11:32:27;;;;;;;18.98;3.20;;;;;;;7.43;90.18;99953.88;5195763;28;20113;-73
2023/01/30 11:35:05;;;;;;;17.02;2.63;;;;;;;7.29;91.18;99923.16;5197586;28;20480;-72
2023/01/30 11:37:38;;;;;;;15.30;2.38;;;;;;;7.16;90.54;99941.78;5190604;28;20034;-73
2023/01/30 11:40:22;;;;;;;15.75;2.30;;;;;;;7.12;90.84;99936.72;5195922;28;20047;-73
2023/01/30 11:43:05;;;;;;;16.35;2.63;;;;;;;7.04;90.22;99939.56;5195313;28;20033;-72
2023/01/30 11:45:39;;;;;;;19.63;2.45;;;;;;;7.18;91.04;99949.50;5193858;28;20032;-72
2023/01/30 11:48:19;;;;;;;16.75;2.50;;;;;;;7.20;90.20;99955.50;5194911;28;20479;-73
2023/01/30 11:50:56;;;;;;;15.05;2.33;;;;;;;7.12;91.57;99939.34;5192834;28;20413;-74
2023/01/30 11:53:41;;;;;;;12.45;1.77;;;;;;;7.13;91.36;99941.03;5193220;28;20026;-74
2023/01/30 11:56:21;;;;;;;21.80;2.92;;;;;;;7.29;92.13;99937.88;5198647;28;20184;-74
2023/01/30 11:59:04;;;;;;;22.63;2.95;;;;;;;7.34;91.30;99943.78;5195413;28;20519;-74
2023/01/30 12:01:36;;;;;;;15.93;1.98;;;;;;;7.33;92.29;99936.91;5193599;28;20041;-74